Time;durP1;ratioP1;P1;durP2;ratioP2;P2;SDS_P1;SDS_P2;PMS_P1;PMS_P2;Temp;Humidity;BMP_temperature;BMP_pressure;BME280_temperature;BME280_humidity;BME280_pressure;Samples;Min_cycle;Max_cycle;Signal;HPM_P1;HPM_P2
2022/11/06 00:01:33;;;;;;;10.70;6.33;;;1.20;99.90;;;;;;4238111;27;20194;-68
2022/11/06 00:03:34;;;;;;;8.63;5.83;;;1.20;99.90;;;;;;4240668;27;20182;-69
2022/11/06 00:07:59;;;;;;;10.40;5.80;;;1.20;99.90;;;;;;4243584;27;20517;-70
2022/11/06 00:10:00;;;;;;;9.10;6.07;;;1.20;99.90;;;;;;4235029;27;20468;-73
2022/11/06 00:12:01;;;;;;;8.77;5.73;;;1.20;99.90;;;;;;4243975;27;20190;-71
2022/11/06 00:14:02;;;;;;;10.17;5.70;;;1.20;99.90;;;;;;4234803;27;20190;-70
2022/11/06 00:16:05;;;;;;;10.53;6.50;;;1.30;99.90;;;;;;4237384;27;20266;-73
2022/11/06 00:18:06;;;;;;;9.50;5.97;;;1.30;99.90;;;;;;4231436;27;20432;-75
2022/11/06 00:20:08;;;;;;;8.43;5.67;;;1.20;99.90;;;;;;4245965;27;20435;-74
2022/11/06 00:22:09;;;;;;;9.60;6.30;;;1.20;99.90;;;;;;4231351;27;20225;-73
2022/11/06 00:24:12;;;;;;;14.43;5.60;;;1.20;99.90;;;;;;4244860;27;20925;-69
2022/11/06 00:26:20;;;;;;;8.80;5.20;;;1.30;99.90;;;;;;4231828;27;20178;-70
2022/11/06 00:28:22;;;;;;;11.60;6.07;;;1.20;99.90;;;;;;4246521;27;20468;-73
2022/11/06 00:30:22;;;;;;;8.23;5.30;;;1.20;99.90;;;;;;4229958;27;20505;-72
2022/11/06 00:32:23;;;;;;;9.83;6.00;;;1.10;99.90;;;;;;4246594;27;20423;-73
2022/11/06 00:34:24;;;;;;;7.00;4.60;;;1.10;99.90;;;;;;4230696;27;20182;-74
2022/11/06 00:36:29;;;;;;;8.07;4.67;;;1.10;99.90;;;;;;4246810;27;20582;-76
2022/11/06 00:38:30;;;;;;;8.90;5.33;;;1.00;99.90;;;;;;4213670;27;20308;-71
2022/11/06 00:40:31;;;;;;;9.23;5.83;;;1.10;99.90;;;;;;4245494;27;21268;-71
2022/11/06 00:42:31;;;;;;;11.00;6.07;;;1.00;99.90;;;;;;4230747;27;20519;-71
2022/11/06 00:44:32;;;;;;;9.83;4.83;;;1.00;99.90;;;;;;4245890;27;20648;-70
2022/11/06 00:46:33;;;;;;;12.97;5.90;;;1.00;99.90;;;;;;4228875;28;20190;-72
2022/11/06 00:48:35;;;;;;;8.83;5.83;;;1.00;99.90;;;;;;4229290;28;20197;-72
2022/11/06 00:50:36;;;;;;;10.57;5.93;;;1.00;99.90;;;;;;4229309;28;20178;-72
2022/11/06 00:52:37;;;;;;;7.80;5.37;;;0.90;99.90;;;;;;4230212;28;20420;-72
2022/11/06 00:54:37;;;;;;;7.57;5.00;;;0.80;99.90;;;;;;4230415;28;20178;-73
2022/11/06 00:56:39;;;;;;;8.20;4.80;;;0.80;99.90;;;;;;4229711;28;20649;-72
2022/11/06 00:58:40;;;;;;;8.87;5.20;;;0.70;99.90;;;;;;4229433;28;20209;-71
2022/11/06 01:00:41;;;;;;;10.10;5.97;;;0.80;99.90;;;;;;4227956;28;20542;-70
2022/11/06 01:02:41;;;;;;;9.07;5.20;;;0.80;99.90;;;;;;4229959;28;21148;-71
2022/11/06 01:04:42;;;;;;;9.93;5.03;;;0.80;99.90;;;;;;4229567;28;20187;-70
2022/11/06 01:06:47;;;;;;;9.13;6.40;;;0.80;99.90;;;;;;4229989;28;20182;-70
2022/11/06 01:08:48;;;;;;;14.70;6.07;;;0.80;99.90;;;;;;4229911;28;20198;-70
2022/11/06 01:10:49;;;;;;;7.90;5.20;;;0.80;99.90;;;;;;4229204;28;20427;-70
2022/11/06 01:12:50;;;;;;;9.73;5.10;;;0.70;99.90;;;;;;4230199;28;20420;-71
2022/11/06 01:14:50;;;;;;;10.23;6.43;;;0.80;99.90;;;;;;4229913;28;20597;-70
2022/11/06 01:16:51;;;;;;;7.90;4.60;;;0.80;99.90;;;;;;4229878;28;20265;-70
2022/11/06 01:18:54;;;;;;;8.90;5.13;;;0.80;99.90;;;;;;4229830;28;20304;-70
2022/11/06 01:20:55;;;;;;;9.50;5.37;;;0.80;99.90;;;;;;4227767;28;20453;-69
2022/11/06 01:22:55;;;;;;;9.30;5.00;;;0.80;99.90;;;;;;4229874;28;20995;-70
2022/11/06 01:24:56;;;;;;;7.20;4.57;;;0.80;99.90;;;;;;4229682;28;20194;-70
2022/11/06 01:26:57;;;;;;;8.30;4.93;;;0.60;99.90;;;;;;4226316;28;20186;-70
2022/11/06 01:28:57;;;;;;;10.43;4.77;;;0.70;99.90;;;;;;4229694;28;20223;-69
2022/11/06 01:31:21;;;;;;;9.83;4.50;;;0.70;99.90;;;;;;4229101;28;20242;-70
2022/11/06 01:33:22;;;;;;;7.73;4.33;;;0.70;99.90;;;;;;4229512;28;20209;-70
2022/11/06 01:35:23;;;;;;;7.70;3.63;;;0.60;99.90;;;;;;4245239;27;20435;-70
2022/11/06 01:37:23;;;;;;;7.97;4.37;;;0.70;99.90;;;;;;4229527;28;20433;-69
2022/11/06 01:39:24;;;;;;;8.23;3.63;;;0.80;99.90;;;;;;4229708;28;20726;-70
2022/11/06 01:41:51;;;;;;;6.90;3.77;;;0.80;99.90;;;;;;4229051;28;20273;-70
2022/11/06 01:44:04;;;;;;;9.60;4.20;;;0.80;99.90;;;;;;4229013;28;20691;-70
2022/11/06 01:46:05;;;;;;;9.03;4.17;;;0.80;99.90;;;;;;4229491;28;20840;-69
2022/11/06 01:48:06;;;;;;;7.40;3.70;;;0.90;99.90;;;;;;4229326;28;20471;-69
2022/11/06 01:50:09;;;;;;;8.70;4.13;;;0.90;99.90;;;;;;4229536;28;20217;-69
2022/11/06 01:52:11;;;;;;;8.37;4.13;;;0.90;99.90;;;;;;4245103;27;20212;-70
2022/11/06 01:54:14;;;;;;;7.63;4.40;;;0.80;99.90;;;;;;4255010;27;20420;-70
2022/11/06 01:56:15;;;;;;;7.80;4.03;;;0.80;99.90;;;;;;4238228;28;20423;-70
2022/11/06 01:58:19;;;;;;;7.00;4.13;;;0.70;99.90;;;;;;4228697;28;20424;-69
2022/11/06 02:00:20;;;;;;;6.53;4.07;;;0.60;99.90;;;;;;4229418;28;20424;-70
2022/11/06 02:02:21;;;;;;;7.97;3.87;;;0.60;99.90;;;;;;4229824;28;20431;-70
2022/11/06 02:04:35;;;;;;;4.90;3.43;;;0.60;99.90;;;;;;4229836;28;20182;-69
2022/11/06 02:06:37;;;;;;;5.73;3.57;;;0.50;99.90;;;;;;4229650;28;20765;-69
2022/11/06 02:08:37;;;;;;;8.43;3.83;;;0.50;99.90;;;;;;4245404;27;20484;-70
2022/11/06 02:10:40;;;;;;;7.17;3.97;;;0.50;99.90;;;;;;4228906;28;20420;-70
2022/11/06 02:12:53;;;;;;;5.57;3.60;;;0.30;99.90;;;;;;4245259;27;20212;-69
2022/11/06 02:15:06;;;;;;;6.63;4.00;;;0.30;99.90;;;;;;4228430;28;20436;-69
2022/11/06 02:17:18;;;;;;;6.30;3.97;;;0.30;99.90;;;;;;4229612;28;20428;-69
2022/11/06 02:19:53;;;;;;;6.37;3.20;;;0.40;99.90;;;;;;4245138;27;20454;-70
2022/11/06 02:22:25;;;;;;;8.13;3.97;;;0.40;99.90;;;;;;4244342;28;20433;-70
2022/11/06 02:24:52;;;;;;;8.03;3.43;;;0.40;99.90;;;;;;4229185;28;20475;-70
2022/11/06 02:27:14;;;;;;;7.47;3.23;;;0.40;99.90;;;;;;4229359;28;20460;-69
2022/11/06 02:29:31;;;;;;;4.37;3.20;;;0.40;99.90;;;;;;4227895;28;20468;-69
2022/11/06 02:31:36;;;;;;;5.10;2.90;;;0.30;99.90;;;;;;4226992;28;20453;-70
2022/11/06 02:33:49;;;;;;;5.90;3.40;;;0.40;99.90;;;;;;4227804;28;20831;-69
2022/11/06 02:36:00;;;;;;;7.03;3.43;;;0.40;99.90;;;;;;4227892;28;20400;-70
2022/11/06 02:38:33;;;;;;;5.50;3.03;;;0.30;99.90;;;;;;4227574;28;20452;-69
2022/11/06 02:40:39;;;;;;;5.53;3.37;;;0.30;99.90;;;;;;4217198;28;20440;-70
2022/11/06 02:42:46;;;;;;;5.47;3.27;;;0.20;99.90;;;;;;4227782;28;20413;-69
2022/11/06 02:44:51;;;;;;;4.93;3.00;;;0.30;99.90;;;;;;4227893;28;20541;-68
2022/11/06 02:46:56;;;;;;;4.60;3.07;;;0.30;99.90;;;;;;4229037;28;20408;-70
2022/11/06 02:49:23;;;;;;;5.50;2.87;;;0.30;99.90;;;;;;4228042;28;21051;-70
2022/11/06 02:51:28;;;;;;;4.20;2.93;;;0.30;99.90;;;;;;4226896;28;21016;-70
2022/11/06 02:53:31;;;;;;;4.93;2.63;;;0.30;99.90;;;;;;4227547;28;20432;-70
2022/11/06 02:55:46;;;;;;;5.90;3.07;;;0.30;99.90;;;;;;4227515;28;21274;-70
2022/11/06 02:57:53;;;;;;;5.63;3.20;;;0.30;99.90;;;;;;4227351;28;20424;-72
2022/11/06 03:00:06;;;;;;;5.73;3.30;;;0.20;99.90;;;;;;4227420;28;20447;-70
2022/11/06 03:02:15;;;;;;;4.83;2.90;;;0.30;99.90;;;;;;4228415;28;21062;-70
2022/11/06 03:04:25;;;;;;;5.97;3.30;;;0.30;99.90;;;;;;4228780;28;20414;-69
2022/11/06 03:06:34;;;;;;;4.23;3.03;;;0.30;99.90;;;;;;4210756;28;20432;-69
2022/11/06 03:09:02;;;;;;;7.87;3.23;;;0.30;99.90;;;;;;4228577;28;20446;-69
2022/11/06 03:11:17;;;;;;;4.87;3.00;;;0.30;99.90;;;;;;4228158;28;20421;-69
2022/11/06 03:13:26;;;;;;;5.37;2.90;;;0.30;99.90;;;;;;4227431;28;20449;-69
2022/11/06 03:15:40;;;;;;;6.27;3.20;;;0.30;99.90;;;;;;4227677;28;20411;-69
2022/11/06 03:17:50;;;;;;;6.07;3.17;;;0.30;99.90;;;;;;4229019;28;21316;-70
2022/11/06 03:20:10;;;;;;;5.20;2.80;;;0.30;99.90;;;;;;4228564;28;20518;-69
2022/11/06 03:22:34;;;;;;;4.43;2.80;;;0.20;99.90;;;;;;4227321;28;20514;-69
2022/11/06 03:24:49;;;;;;;5.47;3.00;;;0.20;99.90;;;;;;4227392;28;20513;-70
2022/11/06 03:26:52;;;;;;;6.57;2.83;;;0.20;99.90;;;;;;4229726;28;20415;-69
2022/11/06 03:29:16;;;;;;;5.00;2.97;;;0.20;99.90;;;;;;4231553;28;20531;-70
2022/11/06 03:31:26;;;;;;;3.97;2.30;;;0.30;99.90;;;;;;4217165;28;20512;-69
2022/11/06 03:33:49;;;;;;;3.97;2.70;;;0.20;99.90;;;;;;4213009;28;20847;-69
2022/11/06 03:36:09;;;;;;;3.83;2.57;;;0.10;99.90;;;;;;4213391;28;20413;-69
2022/11/06 03:38:22;;;;;;;3.03;2.23;;;0.10;99.90;;;;;;4222906;28;20883;-69
2022/11/06 03:40:29;;;;;;;6.40;2.80;;;0.10;99.90;;;;;;4230685;28;20519;-71
2022/11/06 03:42:30;;;;;;;4.97;2.77;;;0.10;99.90;;;;;;4230301;28;20407;-69
2022/11/06 03:44:37;;;;;;;3.73;2.40;;;0.10;99.90;;;;;;4231456;28;20847;-69
2022/11/06 03:46:45;;;;;;;3.70;2.40;;;0.20;99.90;;;;;;4230177;28;20458;-69
2022/11/06 03:48:52;;;;;;;5.00;2.90;;;0.10;99.90;;;;;;4230445;28;20440;-70
2022/11/06 03:51:05;;;;;;;3.83;2.40;;;0.20;99.90;;;;;;4230884;28;20420;-70
2022/11/06 03:53:30;;;;;;;3.83;2.30;;;0.20;99.90;;;;;;4229836;28;20793;-71
2022/11/06 03:55:45;;;;;;;4.17;2.10;;;0.10;99.90;;;;;;4240034;28;20540;-70
2022/11/06 03:57:54;;;;;;;5.23;2.00;;;0.20;99.90;;;;;;4241386;28;20409;-70
2022/11/06 03:59:58;;;;;;;3.77;2.70;;;0.20;99.90;;;;;;4232508;28;20459;-70
2022/11/06 04:02:01;;;;;;;3.67;2.53;;;0.10;99.90;;;;;;4229838;28;20432;-70
2022/11/06 04:04:22;;;;;;;5.10;2.60;;;0.10;99.90;;;;;;4231682;28;20999;-70
2022/11/06 04:06:32;;;;;;;4.67;2.20;;;0.10;99.90;;;;;;4230305;28;20428;-71
2022/11/06 04:15:51;;;;;;;3.00;2.03;;;0.10;99.90;;;;;;4244456;27;20533;-70
2022/11/06 04:17:52;;;;;;;4.13;2.40;;;0.10;99.90;;;;;;4229623;28;20778;-70
2022/11/06 04:19:57;;;;;;;4.47;2.60;;;0.10;99.90;;;;;;4231035;28;20436;-70
2022/11/06 04:22:22;;;;;;;6.97;2.57;;;0.00;99.90;;;;;;4229943;28;20182;-70
2022/11/06 04:27:27;;;;;;;3.40;2.13;;;0.00;99.90;;;;;;4229792;28;20767;-70
2022/11/06 04:29:47;;;;;;;3.47;2.30;;;-0.10;99.90;;;;;;4230699;28;20880;-70
2022/11/06 04:32:43;;;;;;;4.50;2.37;;;-0.10;99.90;;;;;;4228803;28;20469;-70
2022/11/06 04:35:25;;;;;;;3.50;2.10;;;-0.10;99.90;;;;;;4230596;28;20447;-70
2022/11/06 04:38:10;;;;;;;5.67;2.40;;;-0.20;99.90;;;;;;4212717;28;20427;-70
2022/11/06 04:40:33;;;;;;;6.93;2.33;;;-0.20;99.90;;;;;;4228662;28;20515;-70
2022/11/06 04:42:58;;;;;;;3.33;2.23;;;-0.20;99.90;;;;;;4230364;28;20420;-70
2022/11/06 04:45:05;;;;;;;2.20;1.90;;;-0.20;99.90;;;;;;4229012;28;20428;-70
2022/11/06 04:47:11;;;;;;;5.07;2.20;;;-0.20;99.90;;;;;;4228992;28;20406;-70
2022/11/06 04:49:13;;;;;;;3.23;2.20;;;-0.30;99.90;;;;;;4228883;28;20537;-70
2022/11/06 04:51:18;;;;;;;3.97;2.20;;;-0.40;99.90;;;;;;4229500;28;20454;-70
2022/11/06 04:53:21;;;;;;;4.23;2.40;;;-0.40;99.90;;;;;;4229061;28;20419;-70
2022/11/06 04:55:21;;;;;;;2.87;2.10;;;-0.40;99.90;;;;;;4228749;28;20431;-70
2022/11/06 04:57:23;;;;;;;3.07;1.93;;;-0.30;99.90;;;;;;4230168;28;20505;-70
2022/11/06 04:59:24;;;;;;;5.27;2.97;;;-0.40;99.90;;;;;;4230015;28;20446;-70
2022/11/06 05:01:25;;;;;;;4.80;2.77;;;-0.40;99.90;;;;;;4229041;28;20427;-70
2022/11/06 05:03:26;;;;;;;3.70;2.20;;;-0.40;99.90;;;;;;4230075;28;20430;-70
2022/11/06 05:05:26;;;;;;;4.53;2.60;;;-0.40;99.90;;;;;;4229927;28;20424;-71
2022/11/06 05:07:27;;;;;;;3.13;2.30;;;-0.40;99.90;;;;;;4229743;28;20212;-70
2022/11/06 05:09:28;;;;;;;2.93;1.90;;;-0.50;99.90;;;;;;4230082;28;20212;-70
2022/11/06 05:11:28;;;;;;;4.93;2.40;;;-0.40;99.90;;;;;;4229141;28;20181;-70
2022/11/06 05:13:29;;;;;;;5.33;2.40;;;-0.30;99.90;;;;;;4229736;28;20644;-70
2022/11/06 05:15:30;;;;;;;3.30;2.23;;;-0.40;99.90;;;;;;4229801;27;20552;-71
2022/11/06 05:17:30;;;;;;;5.00;2.70;;;-0.40;99.90;;;;;;4230344;28;20193;-70
2022/11/06 05:19:31;;;;;;;4.00;2.80;;;-0.40;99.90;;;;;;4230616;28;20243;-71
2022/11/06 05:23:51;;;;;;;2.70;1.93;;;-0.30;99.90;;;;;;4229779;28;20635;-71
2022/11/06 05:25:52;;;;;;;3.20;2.37;;;-0.40;99.90;;;;;;4229805;28;20509;-71
2022/11/06 05:27:52;;;;;;;3.53;2.43;;;-0.40;99.90;;;;;;4229741;28;20186;-70
2022/11/06 05:29:53;;;;;;;5.10;2.30;;;-0.40;99.90;;;;;;4229757;28;20605;-71
2022/11/06 05:31:54;;;;;;;4.17;2.80;;;-0.40;99.90;;;;;;4229159;28;20175;-71
2022/11/06 05:33:54;;;;;;;4.53;3.00;;;-0.40;99.90;;;;;;4216131;28;20201;-70
2022/11/06 05:35:56;;;;;;;4.60;2.90;;;-0.40;99.90;;;;;;4212661;28;20182;-70
2022/11/06 05:38:02;;;;;;;6.47;2.73;;;-0.40;99.90;;;;;;4211273;28;20197;-71
2022/11/06 05:40:04;;;;;;;5.57;2.70;;;-0.30;99.90;;;;;;4212612;28;20496;-70
2022/11/06 05:42:04;;;;;;;6.40;3.67;;;-0.30;99.90;;;;;;4211927;28;20984;-71
2022/11/06 05:44:05;;;;;;;10.53;3.97;;;-0.30;99.90;;;;;;4212506;28;20522;-71
2022/11/06 05:46:06;;;;;;;6.17;2.93;;;-0.30;99.90;;;;;;4212483;28;20549;-70
2022/11/06 05:48:07;;;;;;;8.13;3.17;;;-0.30;99.90;;;;;;4211349;28;20604;-70
2022/11/06 05:50:09;;;;;;;5.27;2.70;;;-0.30;99.90;;;;;;4212348;28;20456;-70
2022/11/06 05:52:10;;;;;;;5.03;2.73;;;-0.30;99.90;;;;;;4214025;28;20186;-71
2022/11/06 05:54:10;;;;;;;4.50;3.10;;;-0.30;99.90;;;;;;4231420;27;20526;-70
2022/11/06 05:56:11;;;;;;;3.50;2.50;;;-0.30;99.90;;;;;;4240339;27;20608;-70
2022/11/06 05:58:13;;;;;;;5.70;2.80;;;-0.30;99.90;;;;;;4248057;27;20184;-71
2022/11/06 06:00:14;;;;;;;5.67;2.97;;;-0.30;99.90;;;;;;4247360;27;20230;-69
2022/11/06 06:02:14;;;;;;;3.60;2.80;;;-0.30;99.90;;;;;;4247234;27;20936;-70
2022/11/06 06:04:15;;;;;;;5.80;3.10;;;-0.30;99.90;;;;;;4246683;27;20216;-70
2022/11/06 06:06:16;;;;;;;4.63;3.03;;;-0.30;99.90;;;;;;4246832;27;20226;-70
2022/11/06 06:08:16;;;;;;;4.43;2.80;;;-0.30;99.90;;;;;;4228231;28;20212;-70
2022/11/06 06:10:17;;;;;;;7.10;3.37;;;-0.40;99.90;;;;;;4246072;27;20316;-70
2022/11/06 06:12:18;;;;;;;6.47;3.30;;;-0.40;99.90;;;;;;4246314;27;20170;-70
2022/11/06 06:14:20;;;;;;;3.83;2.63;;;-0.50;99.90;;;;;;4246158;27;20342;-71
2022/11/06 06:16:20;;;;;;;5.40;3.17;;;-0.40;99.90;;;;;;4246327;27;20263;-70
2022/11/06 06:18:21;;;;;;;10.43;3.50;;;-0.30;99.90;;;;;;4246503;27;20829;-70
2022/11/06 06:20:22;;;;;;;6.57;3.03;;;-0.30;99.90;;;;;;4238859;27;20236;-70
2022/11/06 06:22:22;;;;;;;4.90;3.03;;;-0.30;99.90;;;;;;4229093;28;20186;-70
2022/11/06 06:24:23;;;;;;;4.70;2.77;;;-0.40;99.90;;;;;;4228818;28;20292;-70
2022/11/06 06:26:24;;;;;;;6.63;3.03;;;-0.30;99.90;;;;;;4228749;28;20188;-70
2022/11/06 06:28:25;;;;;;;5.90;3.43;;;-0.30;99.90;;;;;;4228890;28;20637;-70
2022/11/06 06:30:25;;;;;;;6.60;3.33;;;-0.20;99.90;;;;;;4227114;28;20217;-70
2022/11/06 06:32:26;;;;;;;5.10;3.10;;;-0.20;99.90;;;;;;4228845;28;20211;-70
2022/11/06 06:34:27;;;;;;;4.63;2.80;;;-0.20;99.90;;;;;;4228911;28;20177;-70
2022/11/06 06:36:27;;;;;;;6.87;3.23;;;-0.20;99.90;;;;;;4228756;28;20208;-70
2022/11/06 06:38:28;;;;;;;6.27;3.47;;;-0.20;99.90;;;;;;4228685;28;20213;-70
2022/11/06 06:40:29;;;;;;;7.07;3.60;;;-0.20;99.90;;;;;;4228185;28;20695;-70
2022/11/06 06:42:30;;;;;;;5.33;3.50;;;-0.20;99.90;;;;;;4228679;28;20829;-70
2022/11/06 06:44:30;;;;;;;4.60;3.27;;;-0.20;99.90;;;;;;4228646;28;20266;-70
2022/11/06 06:46:31;;;;;;;5.07;3.10;;;-0.20;99.90;;;;;;4228626;28;20678;-70
2022/11/06 06:48:32;;;;;;;5.67;3.70;;;-0.10;99.90;;;;;;4228420;28;20282;-70
2022/11/06 06:50:33;;;;;;;6.80;3.43;;;-0.20;99.90;;;;;;4228085;28;21007;-70
2022/11/06 06:52:34;;;;;;;10.70;5.27;;;-0.10;99.90;;;;;;4228517;28;20454;-70
2022/11/06 06:54:34;;;;;;;7.67;5.63;;;-0.10;99.90;;;;;;4228507;28;21043;-70
2022/11/06 06:56:35;;;;;;;16.07;8.63;;;-0.20;99.90;;;;;;4228776;28;20208;-70
2022/11/06 06:58:36;;;;;;;12.37;7.80;;;-0.30;99.90;;;;;;4228155;28;20198;-71
2022/11/06 07:00:37;;;;;;;8.63;6.30;;;-0.20;99.90;;;;;;4227635;28;20186;-70
2022/11/06 07:02:37;;;;;;;8.23;5.03;;;-0.20;99.90;;;;;;4230935;28;20189;-70
2022/11/06 07:04:38;;;;;;;6.07;4.20;;;-0.20;99.90;;;;;;4231844;28;20239;-70
2022/11/06 07:06:39;;;;;;;8.30;5.20;;;-0.10;99.90;;;;;;4231730;28;20186;-71
2022/11/06 07:08:40;;;;;;;9.33;5.17;;;-0.10;99.90;;;;;;4231542;28;20816;-70
2022/11/06 07:10:40;;;;;;;9.03;5.30;;;-0.20;99.90;;;;;;4230880;28;20268;-70
2022/11/06 07:12:41;;;;;;;12.10;6.33;;;-0.10;99.90;;;;;;4231578;28;20193;-70
2022/11/06 07:14:42;;;;;;;9.57;6.33;;;-0.10;99.90;;;;;;4231459;28;20614;-70
2022/11/06 07:16:42;;;;;;;7.90;5.90;;;0.00;99.90;;;;;;4231485;28;20227;-70
2022/11/06 07:18:43;;;;;;;11.80;7.80;;;0.10;99.90;;;;;;4231352;28;20202;-70
2022/11/06 07:20:44;;;;;;;13.30;8.27;;;0.30;99.90;;;;;;4230803;28;20191;-70
2022/11/06 07:22:44;;;;;;;14.03;8.10;;;0.40;99.90;;;;;;4231394;28;20186;-71
2022/11/06 07:24:45;;;;;;;13.00;7.57;;;0.30;99.90;;;;;;4231476;28;20201;-70
2022/11/06 07:26:45;;;;;;;16.17;7.93;;;0.30;99.90;;;;;;4231378;28;20234;-70
2022/11/06 07:28:46;;;;;;;10.37;5.37;;;0.50;99.90;;;;;;4231248;28;20209;-70
2022/11/06 07:30:47;;;;;;;10.00;6.20;;;1.10;99.90;;;;;;4230620;28;20189;-71
2022/11/06 07:32:48;;;;;;;12.57;5.57;;;1.40;99.90;;;;;;4231524;28;20546;-70
2022/11/06 07:34:49;;;;;;;10.73;4.73;;;1.60;99.90;;;;;;4230296;28;20179;-70
2022/11/06 07:36:49;;;;;;;18.93;4.93;;;1.80;99.90;;;;;;4231548;28;20189;-70
2022/11/06 07:38:50;;;;;;;10.30;4.33;;;1.90;99.90;;;;;;4231444;28;20202;-70
2022/11/06 07:40:50;;;;;;;10.23;4.80;;;1.90;99.90;;;;;;4230715;28;20178;-71
2022/11/06 07:42:51;;;;;;;11.07;6.30;;;2.00;99.90;;;;;;4218625;28;20685;-71
2022/11/06 07:44:54;;;;;;;10.77;4.60;;;2.10;99.90;;;;;;4214401;28;20671;-70
2022/11/06 07:46:54;;;;;;;9.97;5.00;;;2.20;99.90;;;;;;4214134;28;20266;-70
2022/11/06 07:48:55;;;;;;;11.03;5.23;;;2.20;99.90;;;;;;4214085;28;20974;-70
2022/11/06 07:50:56;;;;;;;12.07;4.90;;;2.40;99.90;;;;;;4213784;28;20187;-71
2022/11/06 07:53:00;;;;;;;9.03;5.03;;;2.30;99.90;;;;;;4214078;28;20184;-70
2022/11/06 07:55:01;;;;;;;10.60;5.70;;;2.40;99.90;;;;;;4214331;28;20421;-70
2022/11/06 07:57:02;;;;;;;12.13;6.30;;;2.40;99.90;;;;;;4214674;28;20432;-70
2022/11/06 07:59:03;;;;;;;12.70;7.70;;;2.50;99.90;;;;;;4219861;28;20203;-70
2022/11/06 08:01:04;;;;;;;13.67;7.37;;;2.60;99.90;;;;;;4219063;28;20189;-71
2022/11/06 08:03:05;;;;;;;18.87;6.33;;;2.80;99.90;;;;;;4214681;28;20458;-70
2022/11/06 08:05:07;;;;;;;10.83;5.63;;;2.90;99.90;;;;;;4214469;28;20203;-70
2022/11/06 08:07:08;;;;;;;10.17;5.43;;;3.00;99.90;;;;;;4214344;28;20647;-70
2022/11/06 08:09:09;;;;;;;12.77;5.40;;;3.00;99.90;;;;;;4213959;28;20563;-70
2022/11/06 08:11:11;;;;;;;11.20;5.90;;;3.20;99.90;;;;;;4214206;28;20639;-71
2022/11/06 08:13:16;;;;;;;11.40;7.27;;;3.20;99.90;;;;;;4214123;28;20184;-71
2022/11/06 08:15:17;;;;;;;11.93;6.70;;;3.40;99.90;;;;;;4214387;28;20518;-70
2022/11/06 08:17:18;;;;;;;14.30;7.13;;;3.50;99.90;;;;;;4220182;28;20446;-71
2022/11/06 08:19:19;;;;;;;14.20;6.20;;;3.60;99.90;;;;;;4231373;28;20677;-71
2022/11/06 08:21:20;;;;;;;12.47;5.70;;;3.60;99.90;;;;;;4230455;28;20427;-71
2022/11/06 08:23:20;;;;;;;7.87;5.30;;;3.80;99.90;;;;;;4230829;28;20671;-70
2022/11/06 08:25:21;;;;;;;9.63;6.10;;;4.00;99.90;;;;;;4229673;28;20180;-70
2022/11/06 08:27:22;;;;;;;13.67;5.73;;;4.20;99.90;;;;;;4231001;28;20313;-71
2022/11/06 08:29:23;;;;;;;10.40;5.87;;;4.50;99.90;;;;;;4230858;28;20206;-71
2022/11/06 08:31:24;;;;;;;8.87;6.10;;;4.70;99.90;;;;;;4229925;28;20209;-71
2022/11/06 08:33:25;;;;;;;10.70;6.00;;;5.00;99.90;;;;;;4230240;28;20420;-70
2022/11/06 08:35:25;;;;;;;10.03;5.90;;;5.20;99.90;;;;;;4229236;28;21294;-71
2022/11/06 08:37:26;;;;;;;9.47;6.27;;;5.30;99.90;;;;;;4230473;28;20850;-71
2022/11/06 08:39:26;;;;;;;9.20;5.10;;;5.50;99.90;;;;;;4230661;28;20206;-70
2022/11/06 08:41:27;;;;;;;11.93;6.13;;;5.60;99.90;;;;;;4229897;28;20181;-70
2022/11/06 08:43:28;;;;;;;7.07;4.70;;;5.80;99.90;;;;;;4230338;28;20239;-71
2022/11/06 08:45:29;;;;;;;9.60;4.90;;;6.00;99.90;;;;;;4230461;28;20676;-69
2022/11/06 08:47:29;;;;;;;8.97;5.13;;;6.00;99.90;;;;;;4230088;28;20652;-70
2022/11/06 08:49:30;;;;;;;7.10;4.60;;;6.20;99.90;;;;;;4230466;28;20263;-70
2022/11/06 08:51:31;;;;;;;7.67;4.87;;;6.40;99.90;;;;;;4229484;28;20182;-70
2022/11/06 08:53:32;;;;;;;7.90;4.50;;;6.70;99.90;;;;;;4230149;28;20186;-70
2022/11/06 08:55:35;;;;;;;5.67;3.40;;;6.70;99.90;;;;;;4230082;28;20190;-71
2022/11/06 08:57:36;;;;;;;9.40;5.70;;;6.70;99.90;;;;;;4230276;28;20735;-70
2022/11/06 08:59:36;;;;;;;6.67;4.80;;;6.80;99.90;;;;;;4230035;28;20448;-70
2022/11/06 09:01:37;;;;;;;5.83;4.07;;;7.10;99.90;;;;;;4228251;28;20193;-70
2022/11/06 09:03:38;;;;;;;5.63;3.70;;;7.30;99.90;;;;;;4230125;28;20524;-70
2022/11/06 09:05:41;;;;;;;6.23;4.03;;;7.40;99.90;;;;;;4230175;28;20187;-70
2022/11/06 09:07:41;;;;;;;7.70;4.80;;;7.70;99.90;;;;;;4230077;28;20193;-71
2022/11/06 09:09:42;;;;;;;5.63;3.77;;;8.00;99.90;;;;;;4230219;28;20208;-70
2022/11/06 09:11:42;;;;;;;6.63;4.00;;;8.00;99.90;;;;;;4229632;28;20184;-70
2022/11/06 09:13:43;;;;;;;8.23;4.67;;;8.10;99.60;;;;;;4230140;27;20231;-71
2022/11/06 09:15:44;;;;;;;9.23;4.87;;;7.90;98.90;;;;;;4230107;28;20231;-70
2022/11/06 09:17:47;;;;;;;9.00;5.20;;;7.80;99.90;;;;;;4230147;28;20176;-71
2022/11/06 09:19:51;;;;;;;10.90;5.30;;;7.60;99.90;;;;;;4230067;28;20216;-69
2022/11/06 09:21:52;;;;;;;6.40;4.33;;;7.60;99.90;;;;;;4229571;28;20181;-70
2022/11/06 09:23:53;;;;;;;5.63;3.87;;;7.70;99.90;;;;;;4229311;28;20692;-70
2022/11/06 09:25:56;;;;;;;5.17;3.47;;;7.90;99.80;;;;;;4229567;28;20536;-70
2022/11/06 09:27:57;;;;;;;4.50;3.30;;;7.50;99.90;;;;;;4229877;28;20676;-70
2022/11/06 09:29:58;;;;;;;3.53;2.77;;;7.40;99.90;;;;;;4229482;28;20213;-70
2022/11/06 09:31:59;;;;;;;3.30;2.90;;;7.20;99.90;;;;;;4229203;28;20251;-70
2022/11/06 09:33:59;;;;;;;4.23;3.20;;;7.00;99.90;;;;;;4229761;28;20182;-70
2022/11/06 09:36:04;;;;;;;4.57;3.17;;;7.20;99.90;;;;;;4229423;28;20586;-69
2022/11/06 09:38:10;;;;;;;3.90;3.10;;;7.30;99.90;;;;;;4229441;28;20178;-70
2022/11/06 09:40:24;;;;;;;4.20;3.23;;;7.30;99.50;;;;;;4229165;28;20182;-70
2022/11/06 09:43:05;;;;;;;3.67;2.90;;;7.60;99.90;;;;;;4229435;28;20166;-70
2022/11/06 09:45:26;;;;;;;3.10;2.57;;;7.60;96.90;;;;;;4217951;28;20812;-70
2022/11/06 09:47:33;;;;;;;2.80;2.50;;;7.30;98.10;;;;;;4228409;28;20167;-70
2022/11/06 09:49:47;;;;;;;3.03;2.43;;;6.80;97.30;;;;;;4244932;27;20213;-70
2022/11/06 09:52:04;;;;;;;2.87;2.50;;;6.50;99.20;;;;;;4244311;27;20192;-71
2022/11/06 09:54:19;;;;;;;2.87;2.27;;;6.80;99.90;;;;;;4229557;28;20170;-70
2022/11/06 09:56:24;;;;;;;3.30;2.40;;;7.30;99.10;;;;;;4210914;28;20198;-70
2022/11/06 09:58:38;;;;;;;2.73;2.30;;;7.70;97.10;;;;;;4229115;28;20163;-70
2022/11/06 10:00:40;;;;;;;2.67;2.30;;;7.50;95.60;;;;;;4248361;27;20169;-71
2022/11/06 10:03:07;;;;;;;4.23;2.47;;;7.20;95.10;;;;;;4241349;28;20188;-70
2022/11/06 10:05:29;;;;;;;2.50;2.30;;;6.80;96.70;;;;;;4246228;27;20166;-69
2022/11/06 10:07:34;;;;;;;3.03;2.30;;;6.80;97.30;;;;;;4229233;28;20661;-70
2022/11/06 10:09:35;;;;;;;3.70;2.23;;;6.60;97.20;;;;;;4229261;28;20220;-70
2022/11/06 10:11:51;;;;;;;2.30;2.00;;;6.30;98.20;;;;;;4228607;28;20636;-70
2022/11/06 10:14:45;;;;;;;3.53;2.53;;;6.20;99.80;;;;;;4228146;28;20167;-70
2022/11/06 10:17:12;;;;;;;2.40;1.80;;;6.50;99.60;;;;;;4204289;28;20225;-71
2022/11/06 10:19:40;;;;;;;3.07;2.10;;;7.10;98.10;;;;;;4228128;28;20202;-69
2022/11/06 10:22:10;;;;;;;3.20;2.53;;;7.70;97.10;;;;;;4228724;28;20194;-70
2022/11/06 10:24:29;;;;;;;3.50;2.70;;;8.20;94.80;;;;;;4229262;28;20229;-71
2022/11/06 10:26:39;;;;;;;3.80;2.80;;;8.50;94.30;;;;;;4227953;28;20170;-70
2022/11/06 10:29:09;;;;;;;2.70;2.30;;;8.80;94.10;;;;;;4227740;28;20202;-70
2022/11/06 10:31:38;;;;;;;2.03;1.73;;;9.10;91.30;;;;;;4227228;28;20182;-70
2022/11/06 10:34:01;;;;;;;2.03;1.80;;;9.80;90.50;;;;;;4227801;28;20184;-70
2022/11/06 10:36:22;;;;;;;2.10;1.90;;;9.90;83.40;;;;;;4228897;28;20174;-70
2022/11/06 10:38:35;;;;;;;1.90;1.70;;;10.20;85.20;;;;;;4230985;28;20181;-70
2022/11/06 10:40:36;;;;;;;3.03;1.80;;;10.20;79.40;;;;;;4231836;28;20177;-70
2022/11/06 10:42:40;;;;;;;2.53;1.97;;;10.30;82.50;;;;;;4232339;28;20590;-70
2022/11/06 10:44:51;;;;;;;2.77;2.20;;;10.80;78.10;;;;;;4232088;28;20218;-71
2022/11/06 10:47:17;;;;;;;2.10;1.90;;;11.10;78.20;;;;;;4232276;28;20768;-70
2022/11/06 10:49:37;;;;;;;3.03;2.30;;;11.20;74.40;;;;;;4232014;28;20684;-70
2022/11/06 10:52:14;;;;;;;2.47;2.27;;;11.50;75.10;;;;;;4231414;28;20173;-70
2022/11/06 10:54:49;;;;;;;2.37;1.90;;;11.20;74.30;;;;;;4231993;28;20185;-70
2022/11/06 10:57:18;;;;;;;2.30;1.90;;;11.50;72.00;;;;;;4230739;28;20235;-71
2022/11/06 10:59:19;;;;;;;2.17;1.90;;;11.30;73.00;;;;;;4232356;27;20205;-70
2022/11/06 11:01:20;;;;;;;2.30;2.10;;;11.80;71.00;;;;;;4231159;28;20178;-70
2022/11/06 11:03:29;;;;;;;1.70;1.60;;;11.10;71.30;;;;;;4231976;28;20213;-70
2022/11/06 11:05:43;;;;;;;2.10;1.90;;;10.60;74.80;;;;;;4231905;28;20180;-70
2022/11/06 11:07:47;;;;;;;1.80;1.70;;;11.30;76.10;;;;;;4231829;28;20210;-71
2022/11/06 11:09:49;;;;;;;9.50;9.00;;;11.70;71.10;;;;;;4232215;28;20218;-70
2022/11/06 11:11:50;;;;;;;2.00;1.60;;;12.30;65.90;;;;;;4230167;28;20355;-71
2022/11/06 11:13:59;;;;;;;2.60;1.90;;;12.20;63.60;;;;;;4230467;28;20206;-70
2022/11/06 11:16:02;;;;;;;2.23;2.00;;;13.40;63.70;;;;;;4231669;28;20227;-70
2022/11/06 11:18:12;;;;;;;2.10;1.90;;;13.90;56.20;;;;;;4231729;28;20179;-69